createdAt,value
2022-11-12T00:02:57.158Z,38.80
2022-11-12T00:06:31.545Z,38.80
2022-11-12T01:22:10.674Z,39.30
2022-11-12T01:25:34.705Z,39.30
2022-11-12T01:29:00.256Z,39.30
2022-11-12T01:32:34.772Z,39.30
2022-11-12T01:36:00.333Z,39.30
2022-11-12T01:39:34.849Z,39.30
2022-11-12T01:43:06.380Z,39.30
2022-11-12T01:46:40.918Z,39.30
2022-11-12T01:50:10.951Z,39.30
2022-11-12T01:53:40.982Z,39.30
2022-11-12T01:57:17.016Z,39.40
2022-11-12T02:00:47.065Z,39.40
2022-11-12T02:04:17.087Z,39.40
2022-11-12T02:07:47.116Z,39.40
2022-11-12T02:11:17.153Z,39.40
2022-11-12T02:14:53.189Z,39.40
2022-11-12T02:18:17.217Z,39.40
2022-11-12T02:21:47.249Z,39.40
2022-11-12T02:25:23.295Z,39.40
2022-11-12T02:28:53.316Z,39.40
2022-11-12T02:32:17.352Z,39.40
2022-11-12T02:35:47.374Z,39.40
2022-11-12T02:39:17.414Z,39.40
2022-11-12T02:42:53.446Z,39.40
2022-11-12T02:46:17.473Z,39.40
2022-11-12T02:49:47.505Z,39.50
2022-11-12T02:53:17.536Z,39.40
2022-11-12T02:56:47.566Z,39.40
2022-11-12T03:00:23.597Z,39.40
2022-11-12T03:03:53.629Z,39.50
2022-11-12T03:07:17.728Z,39.50
2022-11-12T03:10:41.690Z,39.40
2022-11-12T03:14:07.166Z,39.40
2022-11-12T03:17:41.749Z,39.50
2022-11-12T03:21:07.235Z,39.40
2022-11-12T03:24:35.814Z,39.50
2022-11-12T03:28:01.304Z,39.40
2022-11-12T03:31:29.873Z,39.50
2022-11-12T03:35:11.911Z,39.50
2022-11-12T03:38:41.937Z,39.60
2022-11-12T03:42:07.450Z,39.60
2022-11-12T03:45:36.009Z,39.60
2022-11-12T03:49:02.493Z,39.60
2022-11-12T03:52:36.068Z,39.60
2022-11-12T03:56:02.726Z,39.70
2022-11-12T03:59:30.145Z,39.70
2022-11-12T04:02:50.254Z,39.70
2022-11-12T04:06:12.214Z,39.60
2022-11-12T04:09:48.241Z,39.60
2022-11-12T04:13:12.271Z,39.60
2022-11-12T04:16:42.306Z,39.60
2022-11-12T04:20:07.827Z,39.60
2022-11-12T04:23:36.372Z,39.70
2022-11-12T04:27:00.404Z,39.70
2022-11-12T04:30:30.438Z,39.70
2022-11-12T04:34:00.468Z,39.70
2022-11-12T04:37:24.502Z,40.30
2022-11-12T04:40:48.529Z,39.80
2022-11-12T04:44:24.561Z,39.80
2022-11-12T04:47:48.592Z,39.70
2022-11-12T04:51:14.112Z,39.60
2022-11-12T04:54:42.653Z,39.60
2022-11-12T04:58:08.168Z,39.60
2022-11-12T05:01:42.726Z,39.60
2022-11-12T05:05:08.228Z,39.60
2022-11-12T05:08:36.796Z,39.60
2022-11-12T05:50:06.880Z,39.50
2022-11-12T05:57:58.681Z,39.50
2022-11-12T06:02:07.378Z,39.50
2022-11-12T06:10:20.812Z,39.50
2022-11-12T06:25:25.296Z,39.50
2022-11-12T06:28:49.376Z,39.50
2022-11-12T06:32:19.355Z,39.60
2022-11-12T06:35:43.469Z,39.50
2022-11-12T06:39:14.969Z,39.50
2022-11-12T06:42:26.962Z,39.50
2022-11-12T06:45:55.470Z,39.50
2022-11-12T06:49:19.499Z,39.50
2022-11-12T06:52:43.525Z,39.50
2022-11-12T06:56:15.215Z,39.50
2022-11-12T06:59:43.589Z,39.50
2022-11-12T07:03:03.155Z,39.50
2022-11-12T07:06:25.648Z,39.40
2022-11-12T07:09:45.247Z,39.40
2022-11-12T07:13:03.362Z,39.40
2022-11-12T07:16:24.124Z,39.40
2022-11-12T07:19:49.760Z,39.30
2022-11-12T07:23:09.378Z,39.30
2022-11-12T07:26:39.139Z,39.30
2022-11-12T07:30:07.848Z,39.30
2022-11-12T07:36:52.938Z,39.40
2022-11-12T07:40:15.485Z,39.40
2022-11-12T07:43:40.419Z,39.30
2022-11-12T07:47:07.995Z,39.30
2022-11-12T07:50:25.162Z,39.30
2022-11-12T07:53:44.044Z,39.30
2022-11-12T07:57:11.191Z,39.20
2022-11-12T08:00:38.103Z,39.10
2022-11-12T08:04:11.511Z,39.00
2022-11-12T08:07:39.788Z,38.90
2022-11-12T08:11:08.197Z,38.80
2022-11-12T08:14:32.216Z,38.80
2022-11-12T08:17:39.814Z,38.80
2022-11-12T08:21:12.133Z,38.70
2022-11-12T08:24:38.303Z,38.50
2022-11-12T08:28:08.330Z,38.30
2022-11-12T08:31:32.358Z,38.30
2022-11-12T08:34:58.049Z,38.00
2022-11-12T08:38:32.417Z,38.00
2022-11-12T08:41:56.446Z,38.00
2022-11-12T08:45:16.032Z,38.10
2022-11-12T08:48:38.503Z,38.20
2022-11-12T08:51:52.086Z,38.10
2022-11-12T08:55:32.559Z,38.80
2022-11-12T08:58:52.138Z,38.00
2022-11-12T09:02:22.230Z,38.00
2022-11-12T09:05:44.649Z,38.00
2022-11-12T09:09:13.841Z,38.00
2022-11-12T09:12:38.707Z,37.90
2022-11-12T09:16:08.732Z,37.80
2022-11-12T09:19:22.347Z,37.80
2022-11-12T09:22:47.380Z,37.90
2022-11-12T09:26:14.385Z,37.80
2022-11-12T09:29:44.861Z,37.70
2022-11-12T09:33:08.898Z,37.70
2022-11-12T09:36:39.913Z,37.80
2022-11-12T09:40:04.511Z,37.70
2022-11-12T09:56:16.759Z,37.80
2022-11-12T10:20:16.840Z,37.80
2022-11-12T10:46:27.664Z,37.70
2022-11-12T10:55:07.428Z,37.60
2022-11-12T11:27:07.890Z,37.30
2022-11-12T11:30:49.921Z,37.30
2022-11-12T11:34:25.950Z,37.30
2022-11-12T11:41:26.007Z,37.30
2022-11-12T11:45:02.051Z,37.30
2022-11-12T11:48:31.249Z,37.30
2022-11-12T11:52:31.287Z,37.40
2022-11-12T11:56:08.127Z,37.30
2022-11-12T12:03:33.025Z,37.30
2022-11-12T12:07:08.264Z,37.30
2022-11-12T12:14:38.285Z,37.30
2022-11-12T12:18:08.313Z,37.40
2022-11-12T12:21:44.346Z,37.30
2022-11-12T12:25:26.375Z,37.40
2022-11-12T12:29:02.405Z,37.30
2022-11-12T12:32:14.465Z,37.30
2022-11-12T12:35:55.675Z,37.20
2022-11-12T12:39:32.496Z,37.20
2022-11-12T12:54:08.659Z,37.30
2022-11-12T12:58:02.649Z,37.30
2022-11-12T13:01:38.679Z,37.30
2022-11-12T13:05:31.944Z,37.30
2022-11-12T13:09:02.744Z,37.30
2022-11-12T13:12:56.778Z,37.40
2022-11-12T13:16:32.811Z,37.40
2022-11-12T13:27:38.903Z,37.40
2022-11-12T13:31:32.189Z,37.40
2022-11-12T13:35:14.966Z,37.30
2022-11-12T13:38:50.995Z,37.30
2022-11-12T13:45:51.057Z,37.40
2022-11-12T13:49:32.359Z,37.40
2022-11-12T13:53:09.124Z,37.40
2022-11-12T13:56:57.152Z,37.40
2022-11-12T14:00:45.199Z,37.50
2022-11-12T14:04:21.213Z,37.40
2022-11-12T14:12:03.276Z,37.50
2022-11-12T14:15:39.309Z,37.50
2022-11-12T14:19:27.345Z,37.50
2022-11-12T14:23:03.368Z,37.60
2022-11-12T14:26:39.397Z,37.60
2022-11-12T14:30:15.428Z,37.70
2022-11-12T14:34:15.459Z,37.60
2022-11-12T14:37:33.416Z,37.70
2022-11-12T14:41:03.520Z,37.80
2022-11-12T14:44:39.549Z,37.80
2022-11-12T15:16:35.468Z,38.10
2022-11-12T17:55:46.324Z,39.00
2022-11-12T19:31:46.594Z,39.30
2022-11-12T19:35:23.256Z,39.40
2022-11-12T19:38:48.620Z,39.50
2022-11-12T19:42:17.341Z,39.60
2022-11-12T19:45:48.279Z,39.60
2022-11-12T19:49:18.308Z,39.50
2022-11-12T19:52:59.435Z,39.60
2022-11-12T19:56:30.363Z,39.60
2022-11-12T19:59:54.396Z,39.60
2022-11-12T20:03:30.422Z,39.50
2022-11-12T20:07:05.702Z,39.60
2022-11-12T20:10:42.483Z,39.50
2022-11-12T20:14:06.533Z,39.60
2022-11-12T20:17:42.542Z,39.50
2022-11-12T20:21:06.570Z,39.60
2022-11-12T20:24:42.601Z,39.50
2022-11-12T20:38:54.719Z,39.70
2022-11-12T20:42:30.750Z,39.60
2022-11-12T20:46:12.780Z,39.70
2022-11-12T20:49:36.809Z,39.70
2022-11-12T20:53:12.839Z,39.60
2022-11-12T20:56:48.867Z,39.60
2022-11-12T21:00:23.826Z,39.60
2022-11-12T21:04:06.929Z,39.70
2022-11-12T21:07:36.959Z,39.60
2022-11-12T21:11:06.990Z,39.70
2022-11-12T21:14:47.431Z,39.70
2022-11-12T21:18:19.045Z,39.70
2022-11-12T21:25:43.106Z,39.90
2022-11-12T21:32:37.167Z,39.90
2022-11-12T22:17:37.602Z,40.10
2022-11-12T22:38:09.268Z,40.10
2022-11-12T23:15:02.175Z,40.00
